sensor_id;sensor_type;location;lat;lon;timestamp;P1;durP1;ratioP1;P2;durP2;ratioP2
62880;SDS011;48969;49.934;8.596;2022-11-11T00:02:16;11.07;;;8.73;;
62880;SDS011;48969;49.934;8.596;2022-11-11T00:04:42;11.32;;;8.88;;
62880;SDS011;48969;49.934;8.596;2022-11-11T00:07:07;11.82;;;9.02;;
62880;SDS011;48969;49.934;8.596;2022-11-11T00:09:32;9.60;;;3.63;;
62880;SDS011;48969;49.934;8.596;2022-11-11T00:11:57;10.93;;;8.98;;
62880;SDS011;48969;49.934;8.596;2022-11-11T00:14:22;12.23;;;8.85;;
62880;SDS011;48969;49.934;8.596;2022-11-11T00:16:47;11.10;;;8.15;;
62880;SDS011;48969;49.934;8.596;2022-11-11T00:19:31;10.48;;;7.97;;
62880;SDS011;48969;49.934;8.596;2022-11-11T00:22:19;11.60;;;8.60;;
62880;SDS011;48969;49.934;8.596;2022-11-11T00:25:03;5.50;;;3.13;;
62880;SDS011;48969;49.934;8.596;2022-11-11T00:27:32;10.93;;;8.60;;
62880;SDS011;48969;49.934;8.596;2022-11-11T00:29:57;4.15;;;2.22;;
62880;SDS011;48969;49.934;8.596;2022-11-11T00:32:22;11.98;;;8.93;;
62880;SDS011;48969;49.934;8.596;2022-11-11T00:34:51;12.15;;;7.15;;
62880;SDS011;48969;49.934;8.596;2022-11-11T00:37:35;9.13;;;7.32;;
62880;SDS011;48969;49.934;8.596;2022-11-11T00:40:00;12.27;;;8.60;;
62880;SDS011;48969;49.934;8.596;2022-11-11T00:42:25;11.93;;;9.45;;
62880;SDS011;48969;49.934;8.596;2022-11-11T00:44:51;10.75;;;8.65;;
62880;SDS011;48969;49.934;8.596;2022-11-11T00:47:16;11.18;;;8.90;;
62880;SDS011;48969;49.934;8.596;2022-11-11T00:50:00;12.63;;;8.07;;
62880;SDS011;48969;49.934;8.596;2022-11-11T00:52:47;11.30;;;7.70;;
62880;SDS011;48969;49.934;8.596;2022-11-11T00:55:12;9.77;;;7.72;;
62880;SDS011;48969;49.934;8.596;2022-11-11T00:57:38;6.47;;;2.45;;
62880;SDS011;48969;49.934;8.596;2022-11-11T01:00:03;10.63;;;8.40;;
62880;SDS011;48969;49.934;8.596;2022-11-11T01:02:28;11.05;;;8.30;;
62880;SDS011;48969;49.934;8.596;2022-11-11T01:04:54;5.38;;;2.38;;
62880;SDS011;48969;49.934;8.596;2022-11-11T01:07:19;12.80;;;8.45;;
62880;SDS011;48969;49.934;8.596;2022-11-11T01:09:44;11.50;;;8.52;;
62880;SDS011;48969;49.934;8.596;2022-11-11T01:12:09;4.08;;;2.24;;
62880;SDS011;48969;49.934;8.596;2022-11-11T01:14:34;9.57;;;7.85;;
62880;SDS011;48969;49.934;8.596;2022-11-11T01:16:59;5.00;;;3.40;;
62880;SDS011;48969;49.934;8.596;2022-11-11T01:19:25;4.53;;;2.30;;
62880;SDS011;48969;49.934;8.596;2022-11-11T01:21:50;10.75;;;7.05;;
62880;SDS011;48969;49.934;8.596;2022-11-11T01:24:15;10.57;;;7.28;;
62880;SDS011;48969;49.934;8.596;2022-11-11T01:26:40;9.63;;;7.55;;
62880;SDS011;48969;49.934;8.596;2022-11-11T01:29:05;5.53;;;2.88;;
62880;SDS011;48969;49.934;8.596;2022-11-11T01:31:30;3.78;;;2.47;;
62880;SDS011;48969;49.934;8.596;2022-11-11T01:33:56;11.50;;;7.53;;
62880;SDS011;48969;49.934;8.596;2022-11-11T01:39:08;11.73;;;6.93;;
62880;SDS011;48969;49.934;8.596;2022-11-11T01:41:34;7.85;;;5.60;;
62880;SDS011;48969;49.934;8.596;2022-11-11T01:46:31;8.40;;;6.18;;
62880;SDS011;48969;49.934;8.596;2022-11-11T01:49:03;3.70;;;2.03;;
62880;SDS011;48969;49.934;8.596;2022-11-11T01:51:50;4.25;;;2.35;;
62880;SDS011;48969;49.934;8.596;2022-11-11T01:54:23;8.70;;;6.70;;
62880;SDS011;48969;49.934;8.596;2022-11-11T01:56:51;11.18;;;7.50;;
62880;SDS011;48969;49.934;8.596;2022-11-11T01:59:17;9.88;;;6.88;;
62880;SDS011;48969;49.934;8.596;2022-11-11T02:01:43;9.40;;;6.57;;
62880;SDS011;48969;49.934;8.596;2022-11-11T02:04:08;10.05;;;6.43;;
62880;SDS011;48969;49.934;8.596;2022-11-11T02:06:53;2.70;;;1.40;;
62880;SDS011;48969;49.934;8.596;2022-11-11T02:09:19;9.98;;;6.55;;
62880;SDS011;48969;49.934;8.596;2022-11-11T02:11:45;10.77;;;7.00;;
62880;SDS011;48969;49.934;8.596;2022-11-11T02:14:29;9.00;;;6.70;;
62880;SDS011;48969;49.934;8.596;2022-11-11T02:17:01;10.25;;;6.40;;
62880;SDS011;48969;49.934;8.596;2022-11-11T02:19:34;8.38;;;6.68;;
62880;SDS011;48969;49.934;8.596;2022-11-11T02:22:02;10.80;;;6.20;;
62880;SDS011;48969;49.934;8.596;2022-11-11T02:24:32;9.77;;;6.18;;
62880;SDS011;48969;49.934;8.596;2022-11-11T02:26:57;1.73;;;1.60;;
62880;SDS011;48969;49.934;8.596;2022-11-11T02:29:23;2.28;;;2.08;;
62880;SDS011;48969;49.934;8.596;2022-11-11T02:31:48;11.10;;;6.72;;
62880;SDS011;48969;49.934;8.596;2022-11-11T02:34:13;11.48;;;7.10;;
62880;SDS011;48969;49.934;8.596;2022-11-11T02:36:39;6.22;;;2.28;;
62880;SDS011;48969;49.934;8.596;2022-11-11T02:39:04;10.32;;;7.13;;
62880;SDS011;48969;49.934;8.596;2022-11-11T02:41:29;11.48;;;7.10;;
62880;SDS011;48969;49.934;8.596;2022-11-11T02:44:13;5.35;;;2.08;;
62880;SDS011;48969;49.934;8.596;2022-11-11T02:46:39;10.13;;;7.00;;
62880;SDS011;48969;49.934;8.596;2022-11-11T02:49:04;5.07;;;2.83;;
62880;SDS011;48969;49.934;8.596;2022-11-11T02:51:29;9.15;;;6.55;;
62880;SDS011;48969;49.934;8.596;2022-11-11T02:53:54;9.80;;;6.75;;
62880;SDS011;48969;49.934;8.596;2022-11-11T02:56:22;9.45;;;6.18;;
62880;SDS011;48969;49.934;8.596;2022-11-11T02:59:08;3.05;;;1.77;;
62880;SDS011;48969;49.934;8.596;2022-11-11T03:01:33;9.10;;;6.80;;
62880;SDS011;48969;49.934;8.596;2022-11-11T03:03:58;3.47;;;2.45;;
62880;SDS011;48969;49.934;8.596;2022-11-11T03:06:24;9.95;;;7.40;;
62880;SDS011;48969;49.934;8.596;2022-11-11T03:08:49;3.38;;;2.34;;
62880;SDS011;48969;49.934;8.596;2022-11-11T03:11:14;13.43;;;7.97;;
62880;SDS011;48969;49.934;8.596;2022-11-11T03:13:39;10.65;;;8.02;;
62880;SDS011;48969;49.934;8.596;2022-11-11T03:16:04;10.18;;;7.93;;
62880;SDS011;48969;49.934;8.596;2022-11-11T03:18:29;9.10;;;3.65;;
62880;SDS011;48969;49.934;8.596;2022-11-11T03:20:55;10.25;;;8.82;;
62880;SDS011;48969;49.934;8.596;2022-11-11T03:23:29;21.77;;;12.27;;
62880;SDS011;48969;49.934;8.596;2022-11-11T03:25:54;15.80;;;10.75;;
62880;SDS011;48969;49.934;8.596;2022-11-11T03:28:19;19.27;;;11.80;;
62880;SDS011;48969;49.934;8.596;2022-11-11T03:30:46;17.83;;;11.27;;
62880;SDS011;48969;49.934;8.596;2022-11-11T03:33:12;16.40;;;12.13;;
62880;SDS011;48969;49.934;8.596;2022-11-11T03:35:37;20.88;;;11.82;;
62880;SDS011;48969;49.934;8.596;2022-11-11T03:38:03;18.67;;;13.98;;
62880;SDS011;48969;49.934;8.596;2022-11-11T03:40:47;20.73;;;14.65;;
62880;SDS011;48969;49.934;8.596;2022-11-11T03:43:13;20.35;;;14.27;;
62880;SDS011;48969;49.934;8.596;2022-11-11T03:45:39;21.98;;;16.00;;
62880;SDS011;48969;49.934;8.596;2022-11-11T03:48:04;20.42;;;15.95;;
62880;SDS011;48969;49.934;8.596;2022-11-11T03:50:30;19.83;;;15.75;;
62880;SDS011;48969;49.934;8.596;2022-11-11T03:52:55;21.98;;;15.48;;
62880;SDS011;48969;49.934;8.596;2022-11-11T03:55:21;19.52;;;14.60;;
62880;SDS011;48969;49.934;8.596;2022-11-11T03:57:46;18.00;;;14.38;;
62880;SDS011;48969;49.934;8.596;2022-11-11T04:00:12;20.15;;;16.10;;
62880;SDS011;48969;49.934;8.596;2022-11-11T04:02:37;17.80;;;15.93;;
62880;SDS011;48969;49.934;8.596;2022-11-11T04:05:21;19.63;;;17.00;;
62880;SDS011;48969;49.934;8.596;2022-11-11T04:08:09;18.38;;;16.10;;
62880;SDS011;48969;49.934;8.596;2022-11-11T04:10:53;18.73;;;16.73;;
62880;SDS011;48969;49.934;8.596;2022-11-11T04:13:18;20.73;;;17.85;;
62880;SDS011;48969;49.934;8.596;2022-11-11T04:16:02;17.95;;;15.73;;
62880;SDS011;48969;49.934;8.596;2022-11-11T04:18:30;19.30;;;16.60;;
62880;SDS011;48969;49.934;8.596;2022-11-11T04:21:14;18.67;;;16.33;;
62880;SDS011;48969;49.934;8.596;2022-11-11T04:23:58;16.95;;;15.15;;
62880;SDS011;48969;49.934;8.596;2022-11-11T04:26:23;18.48;;;16.52;;
62880;SDS011;48969;49.934;8.596;2022-11-11T04:28:48;17.60;;;15.45;;
62880;SDS011;48969;49.934;8.596;2022-11-11T04:31:32;16.98;;;15.18;;
62880;SDS011;48969;49.934;8.596;2022-11-11T04:33:57;18.00;;;16.00;;
62880;SDS011;48969;49.934;8.596;2022-11-11T04:36:23;17.52;;;15.63;;
62880;SDS011;48969;49.934;8.596;2022-11-11T04:38:48;16.92;;;15.13;;
62880;SDS011;48969;49.934;8.596;2022-11-11T04:41:31;16.88;;;15.07;;
62880;SDS011;48969;49.934;8.596;2022-11-11T04:43:57;19.98;;;16.33;;
62880;SDS011;48969;49.934;8.596;2022-11-11T04:46:40;18.38;;;16.48;;
62880;SDS011;48969;49.934;8.596;2022-11-11T04:49:06;17.60;;;15.70;;
62880;SDS011;48969;49.934;8.596;2022-11-11T04:51:31;16.65;;;14.95;;
62880;SDS011;48969;49.934;8.596;2022-11-11T04:54:16;17.10;;;15.30;;
62880;SDS011;48969;49.934;8.596;2022-11-11T04:56:41;15.43;;;13.93;;
62880;SDS011;48969;49.934;8.596;2022-11-11T04:59:13;14.48;;;12.75;;
62880;SDS011;48969;49.934;8.596;2022-11-11T05:01:42;16.30;;;14.60;;
62880;SDS011;48969;49.934;8.596;2022-11-11T05:04:26;17.27;;;15.40;;
62880;SDS011;48969;49.934;8.596;2022-11-11T05:06:51;16.25;;;14.52;;
62880;SDS011;48969;49.934;8.596;2022-11-11T05:09:34;17.75;;;15.57;;
62880;SDS011;48969;49.934;8.596;2022-11-11T05:12:00;17.80;;;15.90;;
62880;SDS011;48969;49.934;8.596;2022-11-11T05:14:25;17.13;;;15.13;;
62880;SDS011;48969;49.934;8.596;2022-11-11T05:17:09;18.48;;;15.82;;
62880;SDS011;48969;49.934;8.596;2022-11-11T05:19:53;16.58;;;14.88;;
62880;SDS011;48969;49.934;8.596;2022-11-11T05:22:41;16.05;;;14.35;;
62880;SDS011;48969;49.934;8.596;2022-11-11T05:25:06;17.67;;;15.48;;
62880;SDS011;48969;49.934;8.596;2022-11-11T05:27:51;15.93;;;14.15;;
62880;SDS011;48969;49.934;8.596;2022-11-11T05:30:17;15.82;;;14.23;;
62880;SDS011;48969;49.934;8.596;2022-11-11T05:32:42;15.95;;;14.25;;
62880;SDS011;48969;49.934;8.596;2022-11-11T05:35:08;15.98;;;13.80;;
62880;SDS011;48969;49.934;8.596;2022-11-11T05:37:33;15.65;;;14.05;;
62880;SDS011;48969;49.934;8.596;2022-11-11T05:39:58;15.20;;;13.68;;
62880;SDS011;48969;49.934;8.596;2022-11-11T05:42:24;17.35;;;15.55;;
62880;SDS011;48969;49.934;8.596;2022-11-11T05:44:49;15.88;;;14.18;;
62880;SDS011;48969;49.934;8.596;2022-11-11T05:47:14;15.93;;;14.23;;
62880;SDS011;48969;49.934;8.596;2022-11-11T05:49:39;16.50;;;14.77;;
62880;SDS011;48969;49.934;8.596;2022-11-11T05:52:05;15.82;;;13.20;;
62880;SDS011;48969;49.934;8.596;2022-11-11T05:54:30;16.00;;;14.30;;
62880;SDS011;48969;49.934;8.596;2022-11-11T05:56:55;14.80;;;13.27;;
62880;SDS011;48969;49.934;8.596;2022-11-11T05:59:20;15.73;;;13.95;;
62880;SDS011;48969;49.934;8.596;2022-11-11T06:01:48;14.48;;;12.98;;
62880;SDS011;48969;49.934;8.596;2022-11-11T06:04:14;16.05;;;14.32;;
62880;SDS011;48969;49.934;8.596;2022-11-11T06:06:39;17.23;;;14.90;;
62880;SDS011;48969;49.934;8.596;2022-11-11T06:09:05;16.63;;;14.20;;
62880;SDS011;48969;49.934;8.596;2022-11-11T06:11:31;16.05;;;14.35;;
62880;SDS011;48969;49.934;8.596;2022-11-11T06:13:56;16.42;;;14.02;;
62880;SDS011;48969;49.934;8.596;2022-11-11T06:16:21;15.77;;;14.07;;
62880;SDS011;48969;49.934;8.596;2022-11-11T06:18:47;16.40;;;13.27;;
62880;SDS011;48969;49.934;8.596;2022-11-11T06:21:12;16.52;;;13.70;;
62880;SDS011;48969;49.934;8.596;2022-11-11T06:23:38;15.68;;;12.07;;
62880;SDS011;48969;49.934;8.596;2022-11-11T06:26:03;12.85;;;10.55;;
62880;SDS011;48969;49.934;8.596;2022-11-11T06:28:41;15.00;;;12.30;;
62880;SDS011;48969;49.934;8.596;2022-11-11T06:31:07;15.13;;;12.45;;
62880;SDS011;48969;49.934;8.596;2022-11-11T06:33:32;15.57;;;12.38;;
62880;SDS011;48969;49.934;8.596;2022-11-11T06:36:01;15.43;;;11.93;;
62880;SDS011;48969;49.934;8.596;2022-11-11T06:38:26;17.08;;;13.00;;
62880;SDS011;48969;49.934;8.596;2022-11-11T06:40:52;18.95;;;14.02;;
62880;SDS011;48969;49.934;8.596;2022-11-11T06:43:19;17.35;;;12.98;;
62880;SDS011;48969;49.934;8.596;2022-11-11T06:45:44;16.42;;;13.65;;
62880;SDS011;48969;49.934;8.596;2022-11-11T06:48:09;15.80;;;12.40;;
62880;SDS011;48969;49.934;8.596;2022-11-11T06:50:35;14.65;;;11.40;;
62880;SDS011;48969;49.934;8.596;2022-11-11T06:53:10;15.43;;;12.68;;
62880;SDS011;48969;49.934;8.596;2022-11-11T06:55:35;14.27;;;11.32;;
62880;SDS011;48969;49.934;8.596;2022-11-11T06:58:04;16.60;;;11.77;;
62880;SDS011;48969;49.934;8.596;2022-11-11T07:00:29;16.77;;;11.07;;
62880;SDS011;48969;49.934;8.596;2022-11-11T07:02:55;19.85;;;11.20;;
62880;SDS011;48969;49.934;8.596;2022-11-11T07:05:20;16.55;;;11.77;;
62880;SDS011;48969;49.934;8.596;2022-11-11T07:07:45;17.42;;;11.63;;
62880;SDS011;48969;49.934;8.596;2022-11-11T07:10:11;17.67;;;11.82;;
62880;SDS011;48969;49.934;8.596;2022-11-11T07:12:39;19.35;;;12.45;;
62880;SDS011;48969;49.934;8.596;2022-11-11T07:15:04;16.38;;;12.23;;
62880;SDS011;48969;49.934;8.596;2022-11-11T07:17:30;17.98;;;12.32;;
62880;SDS011;48969;49.934;8.596;2022-11-11T07:19:55;16.70;;;13.05;;
62880;SDS011;48969;49.934;8.596;2022-11-11T07:22:20;16.33;;;12.67;;
62880;SDS011;48969;49.934;8.596;2022-11-11T07:24:46;26.23;;;14.35;;
62880;SDS011;48969;49.934;8.596;2022-11-11T07:27:11;16.70;;;13.07;;
62880;SDS011;48969;49.934;8.596;2022-11-11T07:29:36;16.83;;;12.63;;
62880;SDS011;48969;49.934;8.596;2022-11-11T07:32:01;15.02;;;11.60;;
62880;SDS011;48969;49.934;8.596;2022-11-11T07:34:26;15.68;;;10.52;;
62880;SDS011;48969;49.934;8.596;2022-11-11T07:36:52;16.73;;;11.55;;
62880;SDS011;48969;49.934;8.596;2022-11-11T07:39:18;18.02;;;12.60;;
62880;SDS011;48969;49.934;8.596;2022-11-11T07:41:43;16.55;;;12.68;;
62880;SDS011;48969;49.934;8.596;2022-11-11T07:44:08;18.85;;;12.43;;
62880;SDS011;48969;49.934;8.596;2022-11-11T07:46:34;16.00;;;11.82;;
62880;SDS011;48969;49.934;8.596;2022-11-11T07:54:08;19.67;;;13.02;;
62880;SDS011;48969;49.934;8.596;2022-11-11T08:08:51;19.08;;;11.80;;
62880;SDS011;48969;49.934;8.596;2022-11-11T08:41:57;23.88;;;13.90;;
62880;SDS011;48969;49.934;8.596;2022-11-11T08:44:23;18.67;;;12.63;;
62880;SDS011;48969;49.934;8.596;2022-11-11T08:46:48;22.70;;;13.25;;
62880;SDS011;48969;49.934;8.596;2022-11-11T08:49:13;22.80;;;14.38;;
62880;SDS011;48969;49.934;8.596;2022-11-11T08:51:39;22.75;;;14.35;;
62880;SDS011;48969;49.934;8.596;2022-11-11T08:54:04;22.67;;;14.93;;
62880;SDS011;48969;49.934;8.596;2022-11-11T08:56:29;19.95;;;14.10;;
62880;SDS011;48969;49.934;8.596;2022-11-11T08:58:54;24.80;;;15.93;;
62880;SDS011;48969;49.934;8.596;2022-11-11T09:01:20;22.38;;;15.80;;
62880;SDS011;48969;49.934;8.596;2022-11-11T09:03:45;24.03;;;15.37;;
62880;SDS011;48969;49.934;8.596;2022-11-11T09:06:11;27.67;;;16.40;;
62880;SDS011;48969;49.934;8.596;2022-11-11T09:08:36;29.58;;;17.63;;
62880;SDS011;48969;49.934;8.596;2022-11-11T09:13:29;29.50;;;18.60;;
62880;SDS011;48969;49.934;8.596;2022-11-11T09:15:54;31.50;;;18.83;;
62880;SDS011;48969;49.934;8.596;2022-11-11T09:18:19;32.03;;;20.50;;
62880;SDS011;48969;49.934;8.596;2022-11-11T09:20:44;28.20;;;19.00;;
62880;SDS011;48969;49.934;8.596;2022-11-11T09:23:09;28.23;;;19.05;;
62880;SDS011;48969;49.934;8.596;2022-11-11T09:25:38;30.65;;;20.95;;
62880;SDS011;48969;49.934;8.596;2022-11-11T09:28:11;32.33;;;21.75;;
62880;SDS011;48969;49.934;8.596;2022-11-11T09:30:39;32.15;;;20.73;;
62880;SDS011;48969;49.934;8.596;2022-11-11T09:40:48;23.92;;;17.23;;
62880;SDS011;48969;49.934;8.596;2022-11-11T09:43:22;24.33;;;17.02;;
62880;SDS011;48969;49.934;8.596;2022-11-11T09:50:53;29.58;;;18.77;;
62880;SDS011;48969;49.934;8.596;2022-11-11T09:53:27;28.13;;;19.90;;
62880;SDS011;48969;49.934;8.596;2022-11-11T09:55:58;27.03;;;18.37;;
62880;SDS011;48969;49.934;8.596;2022-11-11T09:58:31;27.25;;;18.65;;
62880;SDS011;48969;49.934;8.596;2022-11-11T10:01:06;25.45;;;19.25;;
62880;SDS011;48969;49.934;8.596;2022-11-11T10:03:33;30.48;;;20.23;;
62880;SDS011;48969;49.934;8.596;2022-11-11T10:06:03;28.67;;;20.45;;
62880;SDS011;48969;49.934;8.596;2022-11-11T10:10:57;29.98;;;20.63;;
62880;SDS011;48969;49.934;8.596;2022-11-11T10:13:27;29.40;;;20.90;;
62880;SDS011;48969;49.934;8.596;2022-11-11T10:20:55;30.25;;;22.13;;
62880;SDS011;48969;49.934;8.596;2022-11-11T10:23:39;29.75;;;21.63;;
62880;SDS011;48969;49.934;8.596;2022-11-11T10:26:06;27.60;;;19.90;;
62880;SDS011;48969;49.934;8.596;2022-11-11T10:28:35;31.13;;;21.38;;
62880;SDS011;48969;49.934;8.596;2022-11-11T10:31:04;26.83;;;20.50;;
62880;SDS011;48969;49.934;8.596;2022-11-11T10:33:42;27.75;;;20.33;;
62880;SDS011;48969;49.934;8.596;2022-11-11T10:36:12;28.52;;;21.25;;
62880;SDS011;48969;49.934;8.596;2022-11-11T10:41:10;25.63;;;20.88;;
62880;SDS011;48969;49.934;8.596;2022-11-11T10:43:38;25.27;;;20.05;;
62880;SDS011;48969;49.934;8.596;2022-11-11T10:46:08;27.88;;;21.92;;
62880;SDS011;48969;49.934;8.596;2022-11-11T10:51:04;25.60;;;21.15;;
62880;SDS011;48969;49.934;8.596;2022-11-11T10:53:32;26.10;;;20.83;;
62880;SDS011;48969;49.934;8.596;2022-11-11T10:56:03;26.10;;;21.60;;
62880;SDS011;48969;49.934;8.596;2022-11-11T10:58:38;25.13;;;21.67;;
62880;SDS011;48969;49.934;8.596;2022-11-11T11:01:06;25.13;;;21.08;;
62880;SDS011;48969;49.934;8.596;2022-11-11T11:06:10;25.60;;;21.40;;
62880;SDS011;48969;49.934;8.596;2022-11-11T11:09:02;27.38;;;22.17;;
62880;SDS011;48969;49.934;8.596;2022-11-11T11:11:27;26.38;;;22.30;;
62880;SDS011;48969;49.934;8.596;2022-11-11T11:13:54;26.05;;;21.55;;
62880;SDS011;48969;49.934;8.596;2022-11-11T11:16:24;27.20;;;22.15;;
62880;SDS011;48969;49.934;8.596;2022-11-11T11:21:46;26.67;;;22.92;;
62880;SDS011;48969;49.934;8.596;2022-11-11T11:24:17;30.08;;;23.17;;
62880;SDS011;48969;49.934;8.596;2022-11-11T11:26:43;30.05;;;24.10;;
62880;SDS011;48969;49.934;8.596;2022-11-11T11:29:09;27.55;;;22.80;;
62880;SDS011;48969;49.934;8.596;2022-11-11T11:31:35;27.05;;;21.80;;
62880;SDS011;48969;49.934;8.596;2022-11-11T11:34:03;26.27;;;20.67;;
62880;SDS011;48969;49.934;8.596;2022-11-11T11:36:28;27.55;;;22.55;;
62880;SDS011;48969;49.934;8.596;2022-11-11T11:38:54;27.08;;;21.58;;
62880;SDS011;48969;49.934;8.596;2022-11-11T11:44:03;29.85;;;23.35;;
62880;SDS011;48969;49.934;8.596;2022-11-11T11:46:48;29.42;;;23.50;;
62880;SDS011;48969;49.934;8.596;2022-11-11T11:56:42;30.05;;;25.05;;
62880;SDS011;48969;49.934;8.596;2022-11-11T11:59:10;30.75;;;24.10;;
62880;SDS011;48969;49.934;8.596;2022-11-11T12:06:38;32.67;;;25.58;;
62880;SDS011;48969;49.934;8.596;2022-11-11T12:16:46;27.13;;;23.48;;
62880;SDS011;48969;49.934;8.596;2022-11-11T12:24:21;32.85;;;25.23;;
62880;SDS011;48969;49.934;8.596;2022-11-11T12:26:56;29.38;;;26.10;;
62880;SDS011;48969;49.934;8.596;2022-11-11T12:32:00;32.60;;;26.65;;
62880;SDS011;48969;49.934;8.596;2022-11-11T12:47:44;33.42;;;27.25;;
62880;SDS011;48969;49.934;8.596;2022-11-11T13:57:25;34.10;;;29.45;;
62880;SDS011;48969;49.934;8.596;2022-11-11T14:05:39;35.63;;;29.40;;
62880;SDS011;48969;49.934;8.596;2022-11-11T14:08:07;37.35;;;30.98;;
62880;SDS011;48969;49.934;8.596;2022-11-11T14:15:58;38.72;;;30.77;;
62880;SDS011;48969;49.934;8.596;2022-11-11T14:21:10;46.30;;;37.03;;
62880;SDS011;48969;49.934;8.596;2022-11-11T14:23:46;47.47;;;36.13;;
62880;SDS011;48969;49.934;8.596;2022-11-11T14:26:55;44.83;;;35.35;;
62880;SDS011;48969;49.934;8.596;2022-11-11T14:35:44;44.78;;;35.35;;
62880;SDS011;48969;49.934;8.596;2022-11-11T14:49:55;42.00;;;32.60;;
62880;SDS011;48969;49.934;8.596;2022-11-11T15:15:59;45.25;;;34.88;;
62880;SDS011;48969;49.934;8.596;2022-11-11T15:21:37;53.15;;;36.63;;
62880;SDS011;48969;49.934;8.596;2022-11-11T15:26:36;44.00;;;33.67;;
62880;SDS011;48969;49.934;8.596;2022-11-11T15:31:58;50.42;;;35.00;;
62880;SDS011;48969;49.934;8.596;2022-11-11T15:42:35;54.67;;;38.75;;
62880;SDS011;48969;49.934;8.596;2022-11-11T15:45:04;55.67;;;37.75;;
62880;SDS011;48969;49.934;8.596;2022-11-11T15:47:48;49.83;;;35.63;;
62880;SDS011;48969;49.934;8.596;2022-11-11T15:50:37;50.22;;;35.20;;
62880;SDS011;48969;49.934;8.596;2022-11-11T15:53:02;50.22;;;35.20;;
62880;SDS011;48969;49.934;8.596;2022-11-11T15:56:12;40.72;;;29.80;;
62880;SDS011;48969;49.934;8.596;2022-11-11T16:04:57;45.63;;;33.00;;
62880;SDS011;48969;49.934;8.596;2022-11-11T16:10:36;44.15;;;32.00;;
62880;SDS011;48969;49.934;8.596;2022-11-11T16:13:20;39.25;;;29.90;;
62880;SDS011;48969;49.934;8.596;2022-11-11T16:27:34;35.22;;;27.65;;
62880;SDS011;48969;49.934;8.596;2022-11-11T16:33:41;38.25;;;27.23;;
62880;SDS011;48969;49.934;8.596;2022-11-11T16:36:07;39.95;;;27.42;;
62880;SDS011;48969;49.934;8.596;2022-11-11T16:42:28;34.85;;;26.92;;
62880;SDS011;48969;49.934;8.596;2022-11-11T16:54:25;32.10;;;25.17;;
62880;SDS011;48969;49.934;8.596;2022-11-11T17:03:40;38.70;;;27.98;;
62880;SDS011;48969;49.934;8.596;2022-11-11T17:06:50;36.97;;;27.70;;
62880;SDS011;48969;49.934;8.596;2022-11-11T17:09:47;34.97;;;27.48;;
62880;SDS011;48969;49.934;8.596;2022-11-11T17:12:19;32.05;;;25.80;;
62880;SDS011;48969;49.934;8.596;2022-11-11T17:15:17;30.80;;;23.17;;
62880;SDS011;48969;49.934;8.596;2022-11-11T17:20:17;35.35;;;25.60;;
62880;SDS011;48969;49.934;8.596;2022-11-11T17:31:10;34.13;;;25.15;;
62880;SDS011;48969;49.934;8.596;2022-11-11T17:42:58;37.63;;;25.67;;
62880;SDS011;48969;49.934;8.596;2022-11-11T17:48:18;32.90;;;25.30;;
62880;SDS011;48969;49.934;8.596;2022-11-11T17:51:13;37.88;;;26.05;;
62880;SDS011;48969;49.934;8.596;2022-11-11T17:53:49;35.17;;;25.27;;
62880;SDS011;48969;49.934;8.596;2022-11-11T17:56:53;35.28;;;26.23;;
62880;SDS011;48969;49.934;8.596;2022-11-11T18:10:12;31.85;;;22.67;;
62880;SDS011;48969;49.934;8.596;2022-11-11T18:13:14;33.38;;;23.98;;
62880;SDS011;48969;49.934;8.596;2022-11-11T18:15:42;28.13;;;22.10;;
62880;SDS011;48969;49.934;8.596;2022-11-11T18:30:28;24.92;;;19.20;;
62880;SDS011;48969;49.934;8.596;2022-11-11T18:33:20;26.02;;;20.05;;
62880;SDS011;48969;49.934;8.596;2022-11-11T18:36:00;27.38;;;21.27;;
62880;SDS011;48969;49.934;8.596;2022-11-11T18:38:43;26.98;;;20.77;;
62880;SDS011;48969;49.934;8.596;2022-11-11T18:41:21;27.95;;;22.13;;
62880;SDS011;48969;49.934;8.596;2022-11-11T18:44:27;30.67;;;25.40;;
62880;SDS011;48969;49.934;8.596;2022-11-11T18:46:55;34.88;;;28.05;;
62880;SDS011;48969;49.934;8.596;2022-11-11T18:49:41;30.70;;;22.85;;
62880;SDS011;48969;49.934;8.596;2022-11-11T19:08:21;26.58;;;21.48;;
62880;SDS011;48969;49.934;8.596;2022-11-11T19:10:56;26.92;;;22.15;;
62880;SDS011;48969;49.934;8.596;2022-11-11T19:13:32;27.30;;;21.15;;
62880;SDS011;48969;49.934;8.596;2022-11-11T19:16:23;26.60;;;20.83;;
62880;SDS011;48969;49.934;8.596;2022-11-11T19:19:07;27.90;;;20.65;;
62880;SDS011;48969;49.934;8.596;2022-11-11T19:27:38;27.08;;;20.40;;
62880;SDS011;48969;49.934;8.596;2022-11-11T19:30:27;26.10;;;20.52;;
62880;SDS011;48969;49.934;8.596;2022-11-11T19:42:02;26.33;;;20.60;;
62880;SDS011;48969;49.934;8.596;2022-11-11T19:44:27;26.65;;;22.70;;
62880;SDS011;48969;49.934;8.596;2022-11-11T19:46:52;23.80;;;19.92;;
62880;SDS011;48969;49.934;8.596;2022-11-11T19:49:18;24.17;;;18.95;;
62880;SDS011;48969;49.934;8.596;2022-11-11T19:54:42;22.90;;;19.00;;
62880;SDS011;48969;49.934;8.596;2022-11-11T19:57:15;25.33;;;20.52;;
62880;SDS011;48969;49.934;8.596;2022-11-11T20:11:41;27.67;;;20.35;;
62880;SDS011;48969;49.934;8.596;2022-11-11T20:14:41;27.15;;;20.60;;
62880;SDS011;48969;49.934;8.596;2022-11-11T20:22:45;25.90;;;19.65;;
62880;SDS011;48969;49.934;8.596;2022-11-11T20:30:43;24.45;;;20.55;;
62880;SDS011;48969;49.934;8.596;2022-11-11T20:33:11;26.38;;;22.27;;
62880;SDS011;48969;49.934;8.596;2022-11-11T20:36:03;23.27;;;19.70;;
62880;SDS011;48969;49.934;8.596;2022-11-11T21:02:12;25.23;;;19.77;;
62880;SDS011;48969;49.934;8.596;2022-11-11T21:27:25;23.48;;;19.92;;
62880;SDS011;48969;49.934;8.596;2022-11-11T21:36:10;20.88;;;16.05;;
62880;SDS011;48969;49.934;8.596;2022-11-11T21:41:29;19.15;;;15.25;;
62880;SDS011;48969;49.934;8.596;2022-11-11T21:47:14;17.55;;;13.50;;
62880;SDS011;48969;49.934;8.596;2022-11-11T21:49:42;18.88;;;14.82;;
62880;SDS011;48969;49.934;8.596;2022-11-11T21:52:07;19.70;;;15.60;;
62880;SDS011;48969;49.934;8.596;2022-11-11T21:54:32;19.67;;;14.93;;
62880;SDS011;48969;49.934;8.596;2022-11-11T21:56:57;17.92;;;13.88;;
62880;SDS011;48969;49.934;8.596;2022-11-11T21:59:22;17.67;;;14.45;;
62880;SDS011;48969;49.934;8.596;2022-11-11T22:01:47;16.83;;;13.88;;
62880;SDS011;48969;49.934;8.596;2022-11-11T22:04:13;20.27;;;14.35;;
62880;SDS011;48969;49.934;8.596;2022-11-11T22:06:38;20.50;;;14.30;;
62880;SDS011;48969;49.934;8.596;2022-11-11T22:09:03;4.93;;;3.35;;
62880;SDS011;48969;49.934;8.596;2022-11-11T22:11:30;24.38;;;13.68;;
62880;SDS011;48969;49.934;8.596;2022-11-11T22:13:56;19.25;;;14.13;;
62880;SDS011;48969;49.934;8.596;2022-11-11T22:16:22;25.13;;;14.82;;
62880;SDS011;48969;49.934;8.596;2022-11-11T22:18:52;18.25;;;14.00;;
62880;SDS011;48969;49.934;8.596;2022-11-11T22:21:20;19.90;;;13.65;;
62880;SDS011;48969;49.934;8.596;2022-11-11T22:23:49;3.72;;;2.10;;
62880;SDS011;48969;49.934;8.596;2022-11-11T22:26:14;22.20;;;15.02;;
62880;SDS011;48969;49.934;8.596;2022-11-11T22:28:40;6.35;;;3.15;;
62880;SDS011;48969;49.934;8.596;2022-11-11T22:31:09;6.20;;;4.45;;
62880;SDS011;48969;49.934;8.596;2022-11-11T22:33:35;17.13;;;13.63;;
62880;SDS011;48969;49.934;8.596;2022-11-11T22:36:01;9.00;;;2.83;;
62880;SDS011;48969;49.934;8.596;2022-11-11T22:38:26;17.70;;;13.15;;
62880;SDS011;48969;49.934;8.596;2022-11-11T22:40:52;7.32;;;4.55;;